Airfield :
LOGIN :

Register | Disclaimer

   EN    FR    IT 

 










Legend :    VFR   Marginal VFR   IFR   Intensive IFR   Very Intensive IFR
Visi :
Ceiling :
>= 8 km
>= 3000ft
5 to 8 km
1000 to 3000 ft
1500m to 5 km
500 to 1000 ft
800 to 1500m
200 to 500 ft
< 800m
< 200 ft
Symbols :   Thunderstorms  Fog  Heavy snow  Heavy precipitations  Wind > 20 kt
SIGMETs :     Misc.  Thunderstorms  Icing  Turbulence  Mountain Waves  Volcanic Ashes







- Airport Elevation : 17 ft
- IATA code : GRQ


EHGG - Groningen Eelde

CURRENT METAR :
  • 241955Z AUTO 26005KT 230V290 9999 FEW015CB 08/06 Q1034 NOSIG

EXPIRED METARs :
  • 241925Z AUTO 25006KT 9999 BKN036 BKN042 07/06 Q1034 NOSIG
  • 241855Z AUTO 25005KT 9999 NSC 06/06 Q1034 NOSIG
  • 241825Z AUTO 24005KT 9999 NCD 07/06 Q1033 NOSIG
  • 241755Z AUTO 26004KT 9999 FEW040 08/06 Q1033 NOSIG
  • 241725Z AUTO 30007KT 270V350 9999 FEW015CB BKN042 BKN047 10/07 Q1033 TEMPO 7000 -SHRA FEW030CB

TAF TAF EHGG
Valid from the 24 at 18:00 until the 26 at 00:00 UTC


241721Z 2418/2524 29008KT 9999 SCT035
PROB30
TEMPO 2418/2424 31018KT 7000 -SHRA FEW030CB
PROB30
TEMPO 2503/2506 7000 MIFG
No reported NOTAMs for that airfield.



MET'MAP, your aeronautical weather chart ! - Copyright ORBIFLY December 2007 - Disclaimer

ORBIFLY MET'MAP TEAM :

Programming & Development : Alexandra Zaïnal
Concept & Development : Baudouin d'Aumeries
Co-Development & Prog : Marc-Olivier Méhu
Technical & hardware support : Manuel Goepfert

Contact : metmap@orbifly.com




SOURCES & CREDITS :

   NOAA